Time;durP1;ratioP1;P1;durP2;ratioP2;P2;SDS_P1;SDS_P2;PMS_P1;PMS_P2;Temp;Humidity;BMP_temperature;BMP_pressure;BME280_temperature;BME280_humidity;BME280_pressure;Samples;Min_cycle;Max_cycle;Signal;HPM_P1;HPM_P2
2021/06/20 00:00:07;;;;;;;;;18.25;16.50;;;;;;;;3572346;39;113828;-79
2021/06/20 00:02:36;;;;;;;;;15.75;15.75;;;;;;;;3568358;39;111933;-78
2021/06/20 00:05:04;;;;;;;;;15.75;15.50;;;;;;;;3568611;39;113192;-78
2021/06/20 00:07:30;;;;;;;;;16.75;16.75;;;;;;;;3570342;39;113876;-78
2021/06/20 00:09:57;;;;;;;;;16.75;16.75;;;;;;;;3569829;39;112866;-79
2021/06/20 00:12:24;;;;;;;;;18.75;17.00;;;;;;;;3571394;39;113972;-79
2021/06/20 00:14:50;;;;;;;;;18.25;16.00;;;;;;;;3571154;39;114407;-78
2021/06/20 00:17:17;;;;;;;;;18.50;17.50;;;;;;;;3572522;39;111950;-78
2021/06/20 00:19:45;;;;;;;;;18.25;16.25;;;;;;;;3568535;39;113858;-78
2021/06/20 00:22:11;;;;;;;;;17.25;17.25;;;;;;;;3568263;39;113423;-78
2021/06/20 00:24:39;;;;;;;;;18.75;16.25;;;;;;;;3572274;39;113281;-80
2021/06/20 00:27:05;;;;;;;;;17.75;17.25;;;;;;;;3572069;39;113985;-77
2021/06/20 00:29:32;;;;;;;;;19.00;17.75;;;;;;;;3570514;39;112128;-77
2021/06/20 00:31:59;;;;;;;;;18.25;17.25;;;;;;;;3570387;39;113247;-77
2021/06/20 00:34:25;;;;;;;;;16.25;16.25;;;;;;;;3569877;39;113834;-79
2021/06/20 00:36:53;;;;;;;;;17.75;16.75;;;;;;;;3571731;39;112562;-76
2021/06/20 00:39:20;;;;;;;;;17.00;16.00;;;;;;;;3572415;39;113581;-78
2021/06/20 00:41:46;;;;;;;;;16.50;15.75;;;;;;;;3569566;39;111959;-77
2021/06/20 00:44:13;;;;;;;;;16.25;14.75;;;;;;;;3570642;39;113316;-79
2021/06/20 00:46:39;;;;;;;;;16.00;15.00;;;;;;;;3568137;39;114275;-79
2021/06/20 00:49:06;;;;;;;;;15.75;14.75;;;;;;;;3570275;39;112561;-78
2021/06/20 00:51:32;;;;;;;;;13.75;13.75;;;;;;;;3567394;39;112460;-81
2021/06/20 00:54:00;;;;;;;;;19.25;18.25;;;;;;;;3569511;39;113987;-75
2021/06/20 00:56:28;;;;;;;;;18.50;16.50;;;;;;;;3572042;39;112038;-76
2021/06/20 00:59:02;;;;;;;;;14.75;14.75;;;;;;;;3569828;39;113496;-73
2021/06/20 01:01:29;;;;;;;;;16.00;16.00;;;;;;;;3570751;39;114010;-76
2021/06/20 01:03:55;;;;;;;;;20.75;15.00;;;;;;;;3571605;39;113222;-76
2021/06/20 01:06:22;;;;;;;;;15.25;15.25;;;;;;;;3569480;39;113819;-75
2021/06/20 01:08:48;;;;;;;;;16.50;14.25;;;;;;;;3569839;39;112176;-75
2021/06/20 01:11:16;;;;;;;;;14.00;14.00;;;;;;;;3569969;39;113387;-75
2021/06/20 01:13:45;;;;;;;;;16.25;15.75;;;;;;;;3571061;39;113942;-73
2021/06/20 01:16:12;;;;;;;;;19.75;19.00;;;;;;;;3570588;39;112405;-75
2021/06/20 01:18:39;;;;;;;;;14.50;14.25;;;;;;;;3571731;39;113667;-75
2021/06/20 01:21:06;;;;;;;;;20.25;16.00;;;;;;;;3567535;39;114440;-75
2021/06/20 01:23:34;;;;;;;;;15.50;15.50;;;;;;;;3571046;39;112063;-75
2021/06/20 01:26:01;;;;;;;;;17.50;16.00;;;;;;;;3571402;39;113963;-75
2021/06/20 01:28:29;;;;;;;;;17.00;15.25;;;;;;;;3568350;39;111964;-75
2021/06/20 01:30:58;;;;;;;;;17.50;16.00;;;;;;;;3569230;39;112275;-76
2021/06/20 01:33:25;;;;;;;;;15.00;15.00;;;;;;;;3568813;39;114025;-75
2021/06/20 01:35:52;;;;;;;;;19.00;16.00;;;;;;;;3571642;39;111789;-75
2021/06/20 01:38:19;;;;;;;;;19.25;15.25;;;;;;;;3569910;39;113197;-76
2021/06/20 01:40:47;;;;;;;;;16.00;16.00;;;;;;;;3568450;39;113960;-76
2021/06/20 01:43:13;;;;;;;;;18.75;15.00;;;;;;;;3568282;39;112156;-75
2021/06/20 01:45:41;;;;;;;;;20.00;18.50;;;;;;;;3571805;39;113229;-75
2021/06/20 01:48:08;;;;;;;;;18.25;17.25;;;;;;;;3570280;39;112109;-75
2021/06/20 01:50:35;;;;;;;;;17.00;17.00;;;;;;;;3571137;39;113275;-76
2021/06/20 01:53:03;;;;;;;;;18.50;15.50;;;;;;;;3570914;39;114032;-75
2021/06/20 01:55:29;;;;;;;;;16.25;14.75;;;;;;;;3570651;39;112111;-75
2021/06/20 01:57:57;;;;;;;;;19.00;17.00;;;;;;;;3569346;39;113298;-75
2021/06/20 02:00:24;;;;;;;;;20.25;17.75;;;;;;;;3570953;39;113805;-76
2021/06/20 02:02:51;;;;;;;;;16.50;14.50;;;;;;;;3571086;39;111836;-75
2021/06/20 02:05:17;;;;;;;;;15.75;15.75;;;;;;;;3574502;39;113419;-76
2021/06/20 02:07:44;;;;;;;;;14.25;14.25;;;;;;;;3570842;39;111861;-75
2021/06/20 02:10:12;;;;;;;;;18.00;16.00;;;;;;;;3572596;39;113758;-74
2021/06/20 02:12:38;;;;;;;;;14.75;14.75;;;;;;;;3568660;39;113992;-75
2021/06/20 02:15:08;;;;;;;;;19.75;16.75;;;;;;;;3572926;39;111829;-75
2021/06/20 02:17:35;;;;;;;;;14.75;14.00;;;;;;;;3568914;39;113291;-75
2021/06/20 02:20:03;;;;;;;;;17.50;14.75;;;;;;;;3570756;39;113858;-75
2021/06/20 02:22:31;;;;;;;;;14.50;14.50;;;;;;;;3571023;39;111985;-75
2021/06/20 02:24:58;;;;;;;;;14.50;14.50;;;;;;;;3570595;39;113690;-74
2021/06/20 02:27:24;;;;;;;;;18.25;17.25;;;;;;;;3572826;39;114115;-75
2021/06/20 02:29:52;;;;;;;;;15.00;15.00;;;;;;;;3571814;39;113394;-75
2021/06/20 02:32:20;;;;;;;;;17.75;15.00;;;;;;;;3570666;39;113830;-75
2021/06/20 02:34:47;;;;;;;;;17.00;17.00;;;;;;;;3569580;39;111891;-75
2021/06/20 02:37:14;;;;;;;;;18.00;16.50;;;;;;;;3570259;39;113303;-75
2021/06/20 02:39:41;;;;;;;;;15.25;15.25;;;;;;;;3568667;39;114409;-76
2021/06/20 02:42:08;;;;;;;;;17.50;13.75;;;;;;;;3572730;39;111662;-75
2021/06/20 02:44:35;;;;;;;;;17.75;17.00;;;;;;;;3570855;39;113218;-74
2021/06/20 02:47:03;;;;;;;;;21.00;17.50;;;;;;;;3572419;39;115251;-75
2021/06/20 02:49:31;;;;;;;;;18.00;15.25;;;;;;;;3575325;39;111986;-74
2021/06/20 02:51:58;;;;;;;;;19.75;15.25;;;;;;;;3570646;39;114237;-74
2021/06/20 02:54:25;;;;;;;;;13.75;13.50;;;;;;;;3571009;39;111765;-74
2021/06/20 02:56:52;;;;;;;;;14.25;13.00;;;;;;;;3567811;39;112301;-74
2021/06/20 02:59:18;;;;;;;;;17.00;16.75;;;;;;;;3568994;39;113745;-74
2021/06/20 03:01:45;;;;;;;;;15.50;14.25;;;;;;;;3571481;39;112180;-74
2021/06/20 03:04:12;;;;;;;;;19.25;17.75;;;;;;;;3570534;39;113242;-74
2021/06/20 03:06:39;;;;;;;;;15.00;15.00;;;;;;;;3569793;39;114131;-74
2021/06/20 03:09:06;;;;;;;;;16.50;16.50;;;;;;;;3568780;39;112359;-74
2021/06/20 03:11:35;;;;;;;;;14.75;13.75;;;;;;;;3571126;39;113280;-74
2021/06/20 03:14:02;;;;;;;;;14.00;14.00;;;;;;;;3570599;39;112449;-75
2021/06/20 03:16:28;;;;;;;;;14.50;14.50;;;;;;;;3570555;39;113302;-75
2021/06/20 03:18:55;;;;;;;;;20.25;19.00;;;;;;;;3569783;39;113838;-74
2021/06/20 03:21:21;;;;;;;;;15.50;15.00;;;;;;;;3570384;39;112184;-75
2021/06/20 03:23:55;;;;;;;;;17.00;15.00;;;;;;;;3571537;39;113587;-74
2021/06/20 03:26:22;;;;;;;;;18.00;16.50;;;;;;;;3569083;39;114433;-75
2021/06/20 03:28:48;;;;;;;;;16.75;15.00;;;;;;;;3565881;39;112003;-75
2021/06/20 03:31:17;;;;;;;;;18.00;15.75;;;;;;;;3571231;39;113515;-75
2021/06/20 03:33:44;;;;;;;;;19.50;19.25;;;;;;;;3571972;39;113872;-75
2021/06/20 03:36:11;;;;;;;;;18.00;18.00;;;;;;;;3568978;39;113306;-74
2021/06/20 03:38:38;;;;;;;;;19.25;19.25;;;;;;;;3569733;39;113935;-75
2021/06/20 03:41:05;;;;;;;;;18.00;18.00;;;;;;;;3568625;39;112290;-74
2021/06/20 03:43:32;;;;;;;;;24.00;20.00;;;;;;;;3572461;39;114426;-74
2021/06/20 03:45:59;;;;;;;;;21.00;20.00;;;;;;;;3568259;39;115178;-74
2021/06/20 03:48:25;;;;;;;;;19.75;18.00;;;;;;;;3569769;39;111848;-75
2021/06/20 03:50:52;;;;;;;;;19.50;18.25;;;;;;;;3569230;39;113377;-75
2021/06/20 03:53:18;;;;;;;;;19.25;18.25;;;;;;;;3566554;39;113279;-76
2021/06/20 03:55:45;;;;;;;;;20.25;20.00;;;;;;;;3571684;39;111994;-75
2021/06/20 03:58:13;;;;;;;;;16.75;14.00;;;;;;;;3567873;39;114077;-74
2021/06/20 04:00:39;;;;;;;;;18.50;18.00;;;;;;;;3569843;39;112006;-75
2021/06/20 04:03:06;;;;;;;;;18.50;17.75;;;;;;;;3568453;39;113330;-75
2021/06/20 04:05:33;;;;;;;;;18.75;18.75;;;;;;;;3568057;39;114071;-74
2021/06/20 04:07:59;;;;;;;;;20.00;17.75;;;;;;;;3570058;39;112241;-75
2021/06/20 04:10:26;;;;;;;;;20.00;19.75;;;;;;;;3568069;39;113432;-74
2021/06/20 04:12:53;;;;;;;;;18.25;17.25;;;;;;;;3569152;39;113589;-75
2021/06/20 04:15:21;;;;;;;;;19.25;18.50;;;;;;;;3571894;39;111969;-74
2021/06/20 04:17:48;;;;;;;;;19.50;18.00;;;;;;;;3568694;39;113907;-75
2021/06/20 04:20:15;;;;;;;;;16.50;16.50;;;;;;;;3569565;39;112368;-74
2021/06/20 04:22:43;;;;;;;;;15.25;15.25;;;;;;;;3568406;39;112269;-74
2021/06/20 04:25:12;;;;;;;;;18.75;18.00;;;;;;;;3568019;39;114372;-74
2021/06/20 04:27:39;;;;;;;;;17.75;15.00;;;;;;;;3568418;39;111891;-74
2021/06/20 04:30:06;;;;;;;;;14.75;14.00;;;;;;;;3570123;39;113445;-74
2021/06/20 04:32:34;;;;;;;;;17.75;15.50;;;;;;;;3567905;39;113740;-74
2021/06/20 04:35:00;;;;;;;;;18.25;17.00;;;;;;;;3570425;39;111969;-74
2021/06/20 04:37:27;;;;;;;;;20.75;17.25;;;;;;;;3574034;39;113452;-74
2021/06/20 04:39:54;;;;;;;;;18.25;17.50;;;;;;;;3568840;39;111950;-75
2021/06/20 04:42:22;;;;;;;;;16.50;15.50;;;;;;;;3569156;39;113622;-74
2021/06/20 04:44:48;;;;;;;;;15.00;14.00;;;;;;;;3565152;39;113231;-74
2021/06/20 04:47:16;;;;;;;;;12.75;12.75;;;;;;;;3568805;39;112326;-74
2021/06/20 04:49:44;;;;;;;;;17.75;16.50;;;;;;;;3569457;39;113403;-74
2021/06/20 04:52:12;;;;;;;;;16.50;14.00;;;;;;;;3567995;39;112856;-74
2021/06/20 04:54:49;;;;;;;;;13.50;13.50;;;;;;;;3570395;39;112193;-74
2021/06/20 04:57:16;;;;;;;;;20.75;15.00;;;;;;;;3568985;39;113219;-74
2021/06/20 04:59:46;;;;;;;;;16.50;15.00;;;;;;;;3571642;39;113952;-74
2021/06/20 05:02:12;;;;;;;;;17.75;15.75;;;;;;;;3570393;39;113385;-74
2021/06/20 05:04:40;;;;;;;;;18.00;17.00;;;;;;;;3571934;39;113991;-74
2021/06/20 05:07:08;;;;;;;;;19.50;19.00;;;;;;;;3570071;39;112255;-74
2021/06/20 05:09:35;;;;;;;;;18.25;17.50;;;;;;;;3566707;39;112484;-75
2021/06/20 05:12:01;;;;;;;;;16.75;15.25;;;;;;;;3571394;39;114194;-74
2021/06/20 05:14:28;;;;;;;;;18.50;17.00;;;;;;;;3568575;39;112379;-74
2021/06/20 05:16:54;;;;;;;;;17.00;17.00;;;;;;;;3569318;39;113230;-75
2021/06/20 05:19:21;;;;;;;;;18.00;18.00;;;;;;;;3568573;39;114363;-74
2021/06/20 05:21:48;;;;;;;;;19.75;18.00;;;;;;;;3571554;39;112388;-77
2021/06/20 05:24:16;;;;;;;;;17.25;16.00;;;;;;;;3569399;39;113820;-75
2021/06/20 05:26:43;;;;;;;;;20.25;17.25;;;;;;;;3569657;39;111834;-75
2021/06/20 05:29:09;;;;;;;;;14.25;14.25;;;;;;;;3569931;39;113454;-75
2021/06/20 05:31:36;;;;;;;;;19.75;18.25;;;;;;;;3571447;39;113991;-75
2021/06/20 05:34:03;;;;;;;;;19.00;18.75;;;;;;;;3568201;39;111997;-75
2021/06/20 05:36:29;;;;;;;;;18.00;17.00;;;;;;;;3571757;39;113413;-74
2021/06/20 05:38:56;;;;;;;;;20.75;19.75;;;;;;;;3571341;39;113940;-74
2021/06/20 05:41:24;;;;;;;;;20.25;17.50;;;;;;;;3571865;39;111973;-74
2021/06/20 05:43:51;;;;;;;;;19.25;18.25;;;;;;;;3571782;39;113998;-73
2021/06/20 05:46:19;;;;;;;;;16.50;16.00;;;;;;;;3569650;39;111785;-74
2021/06/20 05:48:45;;;;;;;;;19.25;17.50;;;;;;;;3569579;39;113351;-73
2021/06/20 05:51:12;;;;;;;;;18.75;18.75;;;;;;;;3571197;39;114235;-75
2021/06/20 05:53:39;;;;;;;;;18.75;18.50;;;;;;;;3569354;39;112187;-74
2021/06/20 05:56:06;;;;;;;;;18.25;16.50;;;;;;;;3569626;39;113714;-75
2021/06/20 05:58:34;;;;;;;;;18.25;18.25;;;;;;;;3568916;39;113946;-75
2021/06/20 06:01:00;;;;;;;;;21.25;18.75;;;;;;;;3567859;39;111931;-79
2021/06/20 06:03:27;;;;;;;;;20.25;17.25;;;;;;;;3571306;39;113360;-72
2021/06/20 06:05:54;;;;;;;;;20.50;17.75;;;;;;;;3573628;39;112221;-74
2021/06/20 06:08:20;;;;;;;;;23.25;20.00;;;;;;;;3570586;39;113189;-78
2021/06/20 06:10:47;;;;;;;;;17.75;17.00;;;;;;;;3569375;39;113860;-85
2021/06/20 06:13:13;;;;;;;;;32.00;30.25;;;;;;;;3569845;39;111899;-76
2021/06/20 06:15:41;;;;;;;;;18.75;17.25;;;;;;;;3567954;39;113406;-75
2021/06/20 06:18:08;;;;;;;;;17.00;17.00;;;;;;;;3571455;39;113810;-76
2021/06/20 06:20:34;;;;;;;;;29.00;26.25;;;;;;;;3571587;39;111881;-79
2021/06/20 06:23:01;;;;;;;;;19.75;19.75;;;;;;;;3569684;39;113331;-77
2021/06/20 06:25:28;;;;;;;;;21.50;21.50;;;;;;;;3569799;39;113869;-80
2021/06/20 06:27:54;;;;;;;;;19.25;18.75;;;;;;;;3570498;39;113503;-84
2021/06/20 06:30:22;;;;;;;;;23.00;18.25;;;;;;;;3568058;39;114844;-81
2021/06/20 06:32:50;;;;;;;;;20.50;18.75;;;;;;;;3571449;39;112310;-80
2021/06/20 06:35:16;;;;;;;;;20.25;19.25;;;;;;;;3575755;39;113607;-83
2021/06/20 06:37:44;;;;;;;;;20.00;20.00;;;;;;;;3570899;39;113807;-81
2021/06/20 06:40:11;;;;;;;;;19.50;19.50;;;;;;;;3569580;39;111781;-79
2021/06/20 06:42:38;;;;;;;;;21.75;21.75;;;;;;;;3568899;39;114798;-81
2021/06/20 06:45:05;;;;;;;;;23.50;23.00;;;;;;;;3568736;39;113952;-83
2021/06/20 06:47:32;;;;;;;;;20.25;19.75;;;;;;;;3573583;39;112097;-80
2021/06/20 06:50:00;;;;;;;;;22.75;22.75;;;;;;;;3569256;39;113855;-83
2021/06/20 06:52:26;;;;;;;;;46.75;39.50;;;;;;;;3571258;39;112739;-80
2021/06/20 06:54:55;;;;;;;;;54.00;43.00;;;;;;;;3571296;39;113400;-86
2021/06/20 06:57:22;;;;;;;;;60.25;46.75;;;;;;;;3573094;39;113965;-85
2021/06/20 06:59:50;;;;;;;;;20.75;20.25;;;;;;;;3577182;39;112770;-81
2021/06/20 07:02:17;;;;;;;;;17.75;17.75;;;;;;;;3574947;39;113296;-79
2021/06/20 07:04:44;;;;;;;;;23.00;20.75;;;;;;;;3573428;39;114432;-83
2021/06/20 07:07:12;;;;;;;;;21.75;20.00;;;;;;;;3574627;39;111954;-80
2021/06/20 07:09:38;;;;;;;;;64.75;50.00;;;;;;;;3581874;39;113330;-81
2021/06/20 07:12:05;;;;;;;;;23.25;21.50;;;;;;;;3572544;39;111753;-78
2021/06/20 07:14:34;;;;;;;;;21.75;20.75;;;;;;;;3568750;39;115362;-78
2021/06/20 07:17:01;;;;;;;;;23.75;20.00;;;;;;;;3572709;39;114973;-76
2021/06/20 07:19:28;;;;;;;;;17.75;17.75;;;;;;;;3570547;39;111927;-76
2021/06/20 07:21:54;;;;;;;;;22.25;22.25;;;;;;;;3569747;39;113914;-76
2021/06/20 07:24:22;;;;;;;;;19.00;16.25;;;;;;;;3568753;39;113941;-75
2021/06/20 07:26:49;;;;;;;;;20.75;19.75;;;;;;;;3569277;39;111981;-77
2021/06/20 07:29:15;;;;;;;;;20.50;20.00;;;;;;;;3572943;39;114043;-75
2021/06/20 07:31:42;;;;;;;;;20.50;20.50;;;;;;;;3570784;39;113946;-77
2021/06/20 07:34:08;;;;;;;;;21.25;18.00;;;;;;;;3570536;39;113544;-76
2021/06/20 07:36:35;;;;;;;;;18.00;15.50;;;;;;;;3567977;39;114052;-74
2021/06/20 07:39:03;;;;;;;;;21.75;18.75;;;;;;;;3570433;39;112075;-72
2021/06/20 07:41:31;;;;;;;;;21.00;20.00;;;;;;;;3568325;39;113343;-73
2021/06/20 07:43:57;;;;;;;;;17.00;16.00;;;;;;;;3569396;39;113911;-72
2021/06/20 07:46:24;;;;;;;;;18.00;17.00;;;;;;;;3568849;39;111797;-72
2021/06/20 07:48:50;;;;;;;;;17.33;17.00;;;;;;;;3569382;39;113275;-72
2021/06/20 07:51:17;;;;;;;;;20.33;19.33;;;;;;;;3568799;39;113873;-73
2021/06/20 07:53:43;;;;;;;;;22.33;21.33;;;;;;;;3571205;39;112384;-72
2021/06/20 07:56:10;;;;;;;;;17.00;17.00;;;;;;;;3567592;39;113026;-72
2021/06/20 07:58:38;;;;;;;;;17.33;17.33;;;;;;;;3570070;39;111711;-75
2021/06/20 08:01:05;;;;;;;;;21.00;18.00;;;;;;;;3568025;39;112322;-72
2021/06/20 08:03:34;;;;;;;;;19.33;17.67;;;;;;;;3569459;39;113802;-73
2021/06/20 08:06:00;;;;;;;;;20.67;17.67;;;;;;;;3568514;39;112020;-72
2021/06/20 08:08:27;;;;;;;;;15.33;15.33;;;;;;;;3569586;39;113271;-84
2021/06/20 08:10:53;;;;;;;;;17.67;16.33;;;;;;;;3568286;39;114011;-78
2021/06/20 08:13:20;;;;;;;;;20.00;20.00;;;;;;;;3572049;39;112041;-75
2021/06/20 08:15:48;;;;;;;;;19.33;18.67;;;;;;;;3569124;39;113884;-75
2021/06/20 08:18:15;;;;;;;;;22.00;21.25;;;;;;;;3568836;39;111863;-80
2021/06/20 08:20:42;;;;;;;;;21.50;18.50;;;;;;;;3569674;39;113603;-81
2021/06/20 08:23:09;;;;;;;;;22.00;19.50;;;;;;;;3566654;39;113883;-82
2021/06/20 08:25:35;;;;;;;;;18.67;17.33;;;;;;;;3569508;39;112163;-80
2021/06/20 08:28:02;;;;;;;;;18.50;18.50;;;;;;;;3568085;39;113745;-85
2021/06/20 08:30:28;;;;;;;;;16.00;14.00;;;;;;;;3569635;39;113930;-77
2021/06/20 08:32:56;;;;;;;;;15.33;15.33;;;;;;;;3568874;39;112139;-76
2021/06/20 08:35:23;;;;;;;;;15.67;14.67;;;;;;;;3571916;39;113333;-75
2021/06/20 08:37:50;;;;;;;;;14.00;14.00;;;;;;;;3569071;39;112492;-77
2021/06/20 08:40:17;;;;;;;;;13.33;11.67;;;;;;;;3569336;39;113413;-76
2021/06/20 08:42:43;;;;;;;;;13.67;11.67;;;;;;;;3568187;39;113824;-73
2021/06/20 08:45:13;;;;;;;;;13.00;13.00;;;;;;;;3568597;39;111959;-74
2021/06/20 08:47:41;;;;;;;;;12.67;12.33;;;;;;;;3567967;39;112045;-81
2021/06/20 08:50:10;;;;;;;;;16.00;15.67;;;;;;;;3569794;39;114092;-75
2021/06/20 08:52:37;;;;;;;;;15.00;14.00;;;;;;;;3568166;39;111951;-72
2021/06/20 08:55:05;;;;;;;;;15.33;14.67;;;;;;;;3567697;39;113477;-74
2021/06/20 08:57:32;;;;;;;;;16.67;15.33;;;;;;;;3570217;39;113862;-74
2021/06/20 08:59:58;;;;;;;;;20.00;19.67;;;;;;;;3567492;39;113642;-74
2021/06/20 09:02:26;;;;;;;;;16.00;15.00;;;;;;;;3567641;39;113935;-73
2021/06/20 09:04:56;;;;;;;;;14.33;12.67;;;;;;;;3567466;39;112018;-73
2021/06/20 09:07:31;;;;;;;;;14.67;13.00;;;;;;;;3567990;39;113508;-73
2021/06/20 09:10:08;;;;;;;;;14.33;13.67;;;;;;;;3566796;39;113957;-72
2021/06/20 09:12:41;;;;;;;;;12.33;12.00;;;;;;;;3567903;39;111945;-72
2021/06/20 09:15:08;;;;;;;;;11.67;11.67;;;;;;;;3567944;39;113640;-73
2021/06/20 09:17:35;;;;;;;;;16.33;15.00;;;;;;;;3569230;39;113934;-73
2021/06/20 09:20:04;;;;;;;;;17.00;17.00;;;;;;;;3570802;39;112211;-74
2021/06/20 09:22:32;;;;;;;;;14.00;13.00;;;;;;;;3568982;39;114120;-72
2021/06/20 09:24:59;;;;;;;;;16.67;14.67;;;;;;;;3568092;39;111911;-72
2021/06/20 09:27:25;;;;;;;;;20.00;18.67;;;;;;;;3569265;39;113323;-72
2021/06/20 09:29:52;;;;;;;;;14.33;14.00;;;;;;;;3568062;39;113753;-73
2021/06/20 09:32:18;;;;;;;;;16.67;15.00;;;;;;;;3568593;39;111958;-73
2021/06/20 09:34:46;;;;;;;;;14.67;14.00;;;;;;;;3567240;39;112419;-73
2021/06/20 09:37:13;;;;;;;;;12.00;10.33;;;;;;;;3567872;39;114024;-73
2021/06/20 09:39:41;;;;;;;;;12.67;11.67;;;;;;;;3569117;39;111866;-73
2021/06/20 09:42:08;;;;;;;;;13.00;12.00;;;;;;;;3570209;39;113903;-73
2021/06/20 09:44:36;;;;;;;;;11.67;11.00;;;;;;;;3569276;39;111795;-73
2021/06/20 09:47:02;;;;;;;;;14.00;14.00;;;;;;;;3569620;39;113687;-73
2021/06/20 09:49:29;;;;;;;;;12.33;9.67;;;;;;;;3563704;39;113123;-73
2021/06/20 09:51:57;;;;;;;;;15.00;12.00;;;;;;;;3567888;39;111971;-74
2021/06/20 09:54:30;;;;;;;;;12.67;10.67;;;;;;;;3569069;39;113522;-74
2021/06/20 09:56:58;;;;;;;;;12.33;11.33;;;;;;;;3567663;39;114032;-73
2021/06/20 09:59:28;;;;;;;;;7.67;7.67;;;;;;;;3568808;39;111973;-73
2021/06/20 10:01:55;;;;;;;;;10.00;10.00;;;;;;;;3568243;39;113233;-73
2021/06/20 10:04:22;;;;;;;;;14.00;11.67;;;;;;;;3570766;39;113917;-73
2021/06/20 10:06:48;;;;;;;;;11.00;11.00;;;;;;;;3569060;39;112801;-73
2021/06/20 10:09:16;;;;;;;;;14.67;12.67;;;;;;;;3568963;39;113793;-73
2021/06/20 10:11:42;;;;;;;;;11.33;11.33;;;;;;;;3569008;39;111789;-72
2021/06/20 10:14:10;;;;;;;;;11.00;11.00;;;;;;;;3570555;39;113246;-73
2021/06/20 10:16:38;;;;;;;;;9.67;9.67;;;;;;;;3568228;39;113640;-73
2021/06/20 10:19:06;;;;;;;;;13.67;12.67;;;;;;;;3570645;39;111788;-73
2021/06/20 10:21:35;;;;;;;;;11.00;11.00;;;;;;;;3568644;39;113209;-73
2021/06/20 10:24:06;;;;;;;;;14.33;12.33;;;;;;;;3569052;39;112857;-74
2021/06/20 10:26:34;;;;;;;;;11.00;11.00;;;;;;;;3568900;39;113316;-74
2021/06/20 10:29:02;;;;;;;;;13.67;12.00;;;;;;;;3570037;39;114099;-74
2021/06/20 10:31:35;;;;;;;;;11.00;11.00;;;;;;;;3568841;39;112545;-74
2021/06/20 10:34:15;;;;;;;;;13.33;12.00;;;;;;;;3570548;39;113642;-74
2021/06/20 10:36:44;;;;;;;;;14.67;11.33;;;;;;;;3570976;39;114162;-74
2021/06/20 10:39:11;;;;;;;;;16.00;12.33;;;;;;;;3570195;39;112082;-74
2021/06/20 10:41:38;;;;;;;;;14.00;13.00;;;;;;;;3568763;39;113759;-73
2021/06/20 10:44:05;;;;;;;;;14.00;14.00;;;;;;;;3570205;39;113972;-74
2021/06/20 10:46:32;;;;;;;;;11.00;11.00;;;;;;;;3571352;39;112042;-74
2021/06/20 10:49:00;;;;;;;;;12.00;12.00;;;;;;;;3569881;39;114078;-74
2021/06/20 10:51:27;;;;;;;;;17.00;15.67;;;;;;;;3569042;39;112360;-74
2021/06/20 10:53:53;;;;;;;;;14.00;14.00;;;;;;;;3569863;39;113431;-74
2021/06/20 10:56:21;;;;;;;;;14.00;14.00;;;;;;;;3569000;39;114194;-74
2021/06/20 10:58:48;;;;;;;;;13.33;11.33;;;;;;;;3569411;39;112642;-74
2021/06/20 11:01:15;;;;;;;;;17.00;16.00;;;;;;;;3569917;39;113411;-74
2021/06/20 11:03:43;;;;;;;;;14.00;14.00;;;;;;;;3568525;39;113806;-74
2021/06/20 11:06:15;;;;;;;;;16.67;15.67;;;;;;;;3570244;39;112023;-74
2021/06/20 11:08:43;;;;;;;;;14.33;12.67;;;;;;;;3571092;39;113935;-74
2021/06/20 11:11:13;;;;;;;;;12.33;12.00;;;;;;;;3570275;39;112084;-75
2021/06/20 11:13:41;;;;;;;;;15.67;15.67;;;;;;;;3568806;39;113388;-77
2021/06/20 11:16:08;;;;;;;;;12.67;12.00;;;;;;;;3570131;39;114320;-77
2021/06/20 11:18:34;;;;;;;;;13.00;13.00;;;;;;;;3568880;39;112155;-77
2021/06/20 11:21:01;;;;;;;;;14.00;13.00;;;;;;;;3570226;39;112809;-76
2021/06/20 11:23:31;;;;;;;;;14.00;13.67;;;;;;;;3568202;39;114533;-77
2021/06/20 11:25:58;;;;;;;;;14.00;13.00;;;;;;;;3568148;39;112018;-78
2021/06/20 11:28:24;;;;;;;;;14.00;13.67;;;;;;;;3569668;39;113261;-75
2021/06/20 11:30:51;;;;;;;;;14.00;12.67;;;;;;;;3571624;39;113843;-75
2021/06/20 11:33:25;;;;;;;;;14.00;14.00;;;;;;;;3568828;39;112258;-74
2021/06/20 11:35:52;;;;;;;;;13.67;12.67;;;;;;;;3570079;39;113962;-74
2021/06/20 11:38:29;;;;;;;;;12.67;12.33;;;;;;;;3570217;39;112117;-74
2021/06/20 11:40:56;;;;;;;;;12.33;12.33;;;;;;;;3570816;39;113554;-74
2021/06/20 11:43:22;;;;;;;;;19.67;17.00;;;;;;;;3568927;39;113731;-74
2021/06/20 11:45:49;;;;;;;;;12.00;11.67;;;;;;;;3569951;39;113016;-74
2021/06/20 11:48:15;;;;;;;;;14.67;14.67;;;;;;;;3568870;39;113235;-75
2021/06/20 11:50:47;;;;;;;;;14.33;13.67;;;;;;;;3571855;39;113995;-73
2021/06/20 11:53:16;;;;;;;;;14.33;14.33;;;;;;;;3572425;39;112667;-77
2021/06/20 11:55:47;;;;;;;;;16.33;16.33;;;;;;;;3568516;39;113915;-75
2021/06/20 11:58:15;;;;;;;;;13.67;12.67;;;;;;;;3570362;39;112394;-77
2021/06/20 12:00:42;;;;;;;;;14.67;14.67;;;;;;;;3569722;39;113249;-76
2021/06/20 12:03:11;;;;;;;;;13.33;12.00;;;;;;;;3568928;39;114021;-75
2021/06/20 12:05:44;;;;;;;;;15.33;10.00;;;;;;;;3572776;39;112222;-75
2021/06/20 12:08:10;;;;;;;;;14.33;13.67;;;;;;;;3571446;39;113104;-74
2021/06/20 12:10:38;;;;;;;;;13.00;13.00;;;;;;;;3572147;39;114814;-74
2021/06/20 12:13:07;;;;;;;;;17.33;14.00;;;;;;;;3571200;39;112197;-75
2021/06/20 12:15:35;;;;;;;;;13.33;13.00;;;;;;;;3568491;39;113421;-74
2021/06/20 12:18:03;;;;;;;;;17.00;16.00;;;;;;;;3569973;39;111892;-75
2021/06/20 12:20:31;;;;;;;;;16.67;15.33;;;;;;;;3567797;39;113219;-74
2021/06/20 12:22:57;;;;;;;;;14.00;14.00;;;;;;;;3569991;39;113827;-74
2021/06/20 12:25:24;;;;;;;;;16.67;14.33;;;;;;;;3570401;39;111972;-74
2021/06/20 12:27:51;;;;;;;;;14.00;13.00;;;;;;;;3569577;39;113400;-75
2021/06/20 12:30:20;;;;;;;;;16.67;15.67;;;;;;;;3569724;39;113934;-76
2021/06/20 12:32:47;;;;;;;;;17.00;15.33;;;;;;;;3567218;39;112080;-75
2021/06/20 12:35:21;;;;;;;;;15.67;14.67;;;;;;;;3570247;39;113858;-75
2021/06/20 12:37:49;;;;;;;;;21.33;18.33;;;;;;;;3570465;39;112133;-74
2021/06/20 12:40:16;;;;;;;;;17.33;15.00;;;;;;;;3569087;39;113302;-74
2021/06/20 12:42:45;;;;;;;;;14.67;14.00;;;;;;;;3567537;39;113891;-75
2021/06/20 12:45:20;;;;;;;;;17.00;17.00;;;;;;;;3568908;39;112989;-76
2021/06/20 12:47:46;;;;;;;;;18.00;15.67;;;;;;;;3568855;39;113335;-76
2021/06/20 12:50:13;;;;;;;;;18.33;17.00;;;;;;;;3569166;39;113836;-76
2021/06/20 12:52:40;;;;;;;;;16.33;15.33;;;;;;;;3568654;39;112186;-75
2021/06/20 12:55:14;;;;;;;;;18.67;17.33;;;;;;;;3567461;39;113208;-75
2021/06/20 12:57:49;;;;;;;;;20.00;18.00;;;;;;;;3569962;39;113902;-75
2021/06/20 13:00:16;;;;;;;;;16.67;16.67;;;;;;;;3571545;39;114534;-76
2021/06/20 13:02:50;;;;;;;;;14.67;14.67;;;;;;;;3567054;39;114129;-76
2021/06/20 13:05:27;;;;;;;;;20.33;16.33;;;;;;;;3567143;39;112307;-75
2021/06/20 13:07:54;;;;;;;;;17.00;17.00;;;;;;;;3568334;39;113296;-75
2021/06/20 13:10:21;;;;;;;;;20.00;17.33;;;;;;;;3567647;39;113857;-75
2021/06/20 13:12:47;;;;;;;;;14.33;14.33;;;;;;;;3568085;39;112273;-75
2021/06/20 13:15:16;;;;;;;;;19.00;17.67;;;;;;;;3570053;39;113171;-75
2021/06/20 13:17:44;;;;;;;;;18.33;16.67;;;;;;;;3566349;39;113899;-75
2021/06/20 13:20:12;;;;;;;;;18.33;17.33;;;;;;;;3571833;39;111943;-76
2021/06/20 13:22:39;;;;;;;;;19.67;17.00;;;;;;;;3571194;39;114660;-75
2021/06/20 13:25:06;;;;;;;;;19.67;19.67;;;;;;;;3569672;39;111740;-75
2021/06/20 13:27:33;;;;;;;;;19.00;16.67;;;;;;;;3570178;39;113341;-76
2021/06/20 13:30:00;;;;;;;;;16.00;16.00;;;;;;;;3567557;39;113953;-81
2021/06/20 13:32:27;;;;;;;;;16.67;14.67;;;;;;;;3568800;39;111860;-83
2021/06/20 13:34:55;;;;;;;;;17.00;17.00;;;;;;;;3568593;39;113202;-84
2021/06/20 13:37:23;;;;;;;;;18.00;16.67;;;;;;;;3570672;39;114061;-85
2021/06/20 13:39:49;;;;;;;;;18.33;16.00;;;;;;;;3570006;39;111951;-79
2021/06/20 13:42:16;;;;;;;;;14.67;14.67;;;;;;;;3572083;39;113715;-84
2021/06/20 13:44:43;;;;;;;;;21.33;19.00;;;;;;;;3570116;39;112307;-83
2021/06/20 13:47:09;;;;;;;;;18.00;16.67;;;;;;;;3569782;39;113270;-79
2021/06/20 13:49:36;;;;;;;;;16.00;15.00;;;;;;;;3571610;39;113716;-79
2021/06/20 13:52:04;;;;;;;;;17.67;17.00;;;;;;;;3570689;39;111854;-80
2021/06/20 13:54:31;;;;;;;;;19.33;16.00;;;;;;;;3569204;39;113340;-80
2021/06/20 13:56:58;;;;;;;;;17.67;16.33;;;;;;;;3570211;39;113863;-80
2021/06/20 13:59:24;;;;;;;;;15.33;15.00;;;;;;;;3570504;39;111886;-80
2021/06/20 14:01:51;;;;;;;;;17.33;17.00;;;;;;;;3571722;39;113279;-79
2021/06/20 14:04:18;;;;;;;;;13.00;13.00;;;;;;;;3570686;39;113959;-78